Time;durP1;ratioP1;P1;durP2;ratioP2;P2;SDS_P1;SDS_P2;PMS_P1;PMS_P2;Temp;Humidity;BMP_temperature;BMP_pressure;BME280_temperature;BME280_humidity;BME280_pressure;Samples;Min_cycle;Max_cycle;Signal;HPM_P1;HPM_P2
2023/09/29 00:01:35;;;;;;;2.45;1.10;;;15.70;99.90;;;;;;4853639;29;20052;-79
2023/09/29 00:04:01;;;;;;;4.13;1.52;;;15.70;99.90;;;;;;4814401;29;20048;-79
2023/09/29 00:06:27;;;;;;;4.15;1.52;;;15.70;99.90;;;;;;4853256;29;20132;-79
2023/09/29 00:08:53;;;;;;;2.17;1.10;;;15.70;99.90;;;;;;4845243;29;20153;-79
2023/09/29 00:11:19;;;;;;;2.03;1.17;;;15.70;99.90;;;;;;4844389;29;20145;-80
2023/09/29 00:13:44;;;;;;;2.88;1.08;;;15.70;99.90;;;;;;4821851;29;20045;-80
2023/09/29 00:16:10;;;;;;;2.47;1.02;;;15.70;99.90;;;;;;4859185;29;20041;-80
2023/09/29 00:18:37;;;;;;;3.65;1.30;;;15.80;99.90;;;;;;4859676;29;20053;-79
2023/09/29 00:21:03;;;;;;;2.85;1.27;;;15.80;99.90;;;;;;4860072;29;20249;-80
2023/09/29 00:23:29;;;;;;;3.00;1.10;;;15.80;99.90;;;;;;4844300;29;20581;-79
2023/09/29 00:25:55;;;;;;;2.55;1.13;;;15.80;99.90;;;;;;4828830;29;20652;-80
2023/09/29 00:28:21;;;;;;;2.92;1.10;;;15.80;99.90;;;;;;4844141;29;20458;-79
2023/09/29 00:30:47;;;;;;;2.17;1.45;;;15.80;99.90;;;;;;4859202;29;20054;-79
2023/09/29 00:33:13;;;;;;;3.75;1.50;;;15.80;99.90;;;;;;4828639;29;20061;-79
2023/09/29 00:35:38;;;;;;;3.75;1.45;;;15.80;99.90;;;;;;4847832;29;20042;-79
2023/09/29 00:38:05;;;;;;;2.65;1.25;;;15.80;99.90;;;;;;4827953;29;20079;-80
2023/09/29 00:40:32;;;;;;;3.65;1.40;;;15.70;99.90;;;;;;4859488;29;20445;-80
2023/09/29 00:42:58;;;;;;;2.95;1.30;;;15.70;99.90;;;;;;4843356;29;20042;-81
2023/09/29 00:45:29;;;;;;;3.85;1.63;;;15.70;99.90;;;;;;4850605;29;20136;-80
2023/09/29 00:47:59;;;;;;;3.53;1.48;;;15.70;99.90;;;;;;4859459;29;20050;-80
2023/09/29 00:50:29;;;;;;;3.15;1.20;;;15.70;99.90;;;;;;4844142;29;20168;-80
2023/09/29 00:52:58;;;;;;;3.95;1.30;;;15.70;99.90;;;;;;4829002;29;20413;-80
2023/09/29 00:55:27;;;;;;;1.98;1.15;;;15.70;99.90;;;;;;4844348;29;20041;-81
2023/09/29 00:57:57;;;;;;;2.92;1.33;;;15.70;99.90;;;;;;4859305;29;20463;-81
2023/09/29 01:02:55;;;;;;;2.50;1.30;;;15.70;99.90;;;;;;4859258;29;20056;-81
2023/09/29 01:05:21;;;;;;;2.95;1.20;;;15.70;99.90;;;;;;4843897;29;20542;-81
2023/09/29 01:07:47;;;;;;;3.42;1.40;;;15.70;99.90;;;;;;4844062;29;20189;-81
2023/09/29 01:10:17;;;;;;;;;;;15.70;99.90;;;;;;4847553;29;20411;-81
2023/09/29 01:12:43;;;;;;;1.98;1.02;;;15.70;99.90;;;;;;4840766;29;19939;-81
2023/09/29 01:15:14;;;;;;;;;;;15.60;99.90;;;;;;4829292;29;20097;-79
2023/09/29 01:17:41;;;;;;;2.85;1.58;;;15.60;99.90;;;;;;4848703;29;20007;-80
2023/09/29 01:20:16;;;;;;;3.03;1.27;;;15.70;99.90;;;;;;4828308;29;20061;-80
2023/09/29 01:22:48;;;;;;;3.63;1.83;;;15.70;99.90;;;;;;4842974;29;20060;-80
2023/09/29 01:25:17;;;;;;;3.05;1.13;;;15.60;99.90;;;;;;4843891;29;20120;-80
2023/09/29 01:27:45;;;;;;;2.22;1.08;;;15.60;99.90;;;;;;4829832;29;20038;-80
2023/09/29 01:30:13;;;;;;;2.45;1.20;;;15.60;99.90;;;;;;4837321;29;20117;-81
2023/09/29 01:32:43;;;;;;;2.03;0.90;;;15.60;99.90;;;;;;4843954;29;20450;-81
2023/09/29 01:35:15;;;;;;;3.28;1.10;;;15.60;99.90;;;;;;4840373;29;20151;-80
2023/09/29 01:37:42;;;;;;;4.25;1.65;;;15.60;99.90;;;;;;4840029;29;20063;-80
2023/09/29 01:40:09;;;;;;;2.50;1.30;;;15.50;99.90;;;;;;4813365;29;20041;-80
2023/09/29 01:42:35;;;;;;;2.75;1.10;;;15.60;99.90;;;;;;4843768;29;20393;-80
2023/09/29 01:45:04;;;;;;;4.10;1.55;;;15.50;99.90;;;;;;4858536;29;20048;-80
2023/09/29 01:47:30;;;;;;;3.10;1.30;;;15.60;99.90;;;;;;4858585;29;20046;-80
2023/09/29 01:49:56;;;;;;;1.92;1.05;;;15.60;99.90;;;;;;4842792;29;20088;-80
2023/09/29 01:52:22;;;;;;;3.08;1.20;;;15.60;99.90;;;;;;4812812;29;20077;-81
2023/09/29 01:54:49;;;;;;;3.05;1.40;;;15.60;99.90;;;;;;4811990;29;20077;-80
2023/09/29 01:57:15;;;;;;;3.35;1.17;;;15.60;99.90;;;;;;4843684;29;20053;-80
2023/09/29 01:59:41;;;;;;;2.83;1.40;;;15.60;99.90;;;;;;4842522;29;20053;-80
2023/09/29 02:02:07;;;;;;;2.50;1.30;;;15.60;99.90;;;;;;4840324;29;20488;-80
2023/09/29 02:04:34;;;;;;;;;;;15.60;99.90;;;;;;4836992;29;20061;-80
2023/09/29 02:07:01;;;;;;;3.28;1.63;;;15.60;99.90;;;;;;4841698;29;20002;-80
2023/09/29 02:09:26;;;;;;;3.35;1.30;;;15.50;99.90;;;;;;4842413;29;20053;-80
2023/09/29 02:11:53;;;;;;;2.20;1.35;;;15.60;99.90;;;;;;4827681;29;20052;-80
2023/09/29 02:14:19;;;;;;;2.97;1.13;;;15.50;99.90;;;;;;4842625;29;20118;-80
2023/09/29 02:16:45;;;;;;;4.45;1.35;;;15.60;99.90;;;;;;4842726;29;20431;-80
2023/09/29 02:19:12;;;;;;;2.25;1.15;;;15.60;99.90;;;;;;4842064;29;20065;-80
2023/09/29 02:21:38;;;;;;;2.85;1.10;;;15.60;99.90;;;;;;4842029;29;20085;-80
2023/09/29 02:24:04;;;;;;;3.28;1.25;;;15.60;99.90;;;;;;4841999;29;20085;-80
2023/09/29 02:26:29;;;;;;;;;;;15.60;99.90;;;;;;4857918;29;20038;-80
2023/09/29 02:28:56;;;;;;;1.98;1.30;;;15.70;99.90;;;;;;4842546;29;19920;-80
2023/09/29 02:31:23;;;;;;;2.72;1.15;;;15.70;99.90;;;;;;4828250;29;20347;-80
2023/09/29 02:33:50;;;;;;;2.50;1.10;;;15.70;99.90;;;;;;4841818;29;20080;-80
2023/09/29 02:36:16;;;;;;;3.00;1.30;;;15.70;99.90;;;;;;4824700;29;20037;-80
2023/09/29 02:38:42;;;;;;;2.55;1.08;;;15.70;99.90;;;;;;4826304;29;20121;-80
2023/09/29 02:41:09;;;;;;;3.03;1.40;;;15.70;99.90;;;;;;4848262;29;20045;-81
2023/09/29 02:43:34;;;;;;;1.90;1.00;;;15.70;99.90;;;;;;4855597;29;20524;-81
2023/09/29 02:46:00;;;;;;;2.88;1.38;;;15.70;99.90;;;;;;4870099;29;20081;-80
2023/09/29 02:48:27;;;;;;;1.75;1.05;;;15.70;99.90;;;;;;4826838;29;20134;-80
2023/09/29 02:50:53;;;;;;;2.75;1.35;;;15.70;99.90;;;;;;4857186;29;20050;-80
2023/09/29 02:53:19;;;;;;;2.90;1.52;;;15.70;99.90;;;;;;4841914;29;20094;-79
2023/09/29 02:55:45;;;;;;;1.92;1.02;;;15.70;99.90;;;;;;4824019;29;20045;-80
2023/09/29 02:58:11;;;;;;;3.83;1.42;;;15.70;99.90;;;;;;4836295;29;20116;-80
2023/09/29 03:00:37;;;;;;;;;;;15.70;99.90;;;;;;4841853;29;20446;-80
2023/09/29 03:03:05;;;;;;;2.75;1.20;;;15.70;99.90;;;;;;4826872;29;19920;-80
2023/09/29 03:05:32;;;;;;;3.38;1.50;;;15.70;99.90;;;;;;4826496;29;20049;-80
2023/09/29 03:07:58;;;;;;;2.58;1.30;;;15.70;99.90;;;;;;4824147;29;20074;-80
2023/09/29 03:10:28;;;;;;;2.90;1.30;;;15.70;99.90;;;;;;4838000;29;20132;-80
2023/09/29 03:12:56;;;;;;;2.50;1.15;;;15.70;99.90;;;;;;4842070;29;20497;-80
2023/09/29 03:15:22;;;;;;;2.75;1.10;;;15.70;99.90;;;;;;4826684;29;20133;-80
2023/09/29 03:17:49;;;;;;;2.50;1.00;;;15.70;99.90;;;;;;4826555;29;20381;-80
2023/09/29 03:20:16;;;;;;;2.53;1.08;;;15.70;99.90;;;;;;4826210;29;20057;-80
2023/09/29 03:22:44;;;;;;;2.10;0.90;;;15.70;99.90;;;;;;4841564;29;20125;-80
2023/09/29 03:25:10;;;;;;;2.00;1.00;;;15.70;99.90;;;;;;4856861;29;20057;-80
2023/09/29 03:27:38;;;;;;;2.63;0.90;;;15.70;99.90;;;;;;4841624;29;20058;-80
2023/09/29 03:30:07;;;;;;;2.20;1.10;;;15.70;99.90;;;;;;4856496;29;20501;-80
2023/09/29 03:32:33;;;;;;;2.88;1.13;;;15.80;99.90;;;;;;4841398;29;20038;-80
2023/09/29 03:35:00;;;;;;;2.47;1.05;;;15.80;99.90;;;;;;4841378;29;20060;-80
2023/09/29 03:37:27;;;;;;;3.90;1.42;;;15.80;99.90;;;;;;4841759;29;20053;-80
2023/09/29 03:39:53;;;;;;;3.28;1.30;;;15.80;99.90;;;;;;4841207;29;20084;-79
2023/09/29 03:42:20;;;;;;;2.13;1.10;;;15.80;99.90;;;;;;4841824;29;20053;-79
2023/09/29 03:44:46;;;;;;;2.10;0.98;;;15.80;99.90;;;;;;4841814;29;20053;-79
2023/09/29 03:47:12;;;;;;;2.42;1.15;;;15.90;99.90;;;;;;4814353;29;20412;-80
2023/09/29 03:49:38;;;;;;;3.42;1.27;;;15.90;99.90;;;;;;4844654;29;20049;-80
2023/09/29 03:52:08;;;;;;;;;;;15.90;99.90;;;;;;4860521;29;20129;-80
2023/09/29 03:54:34;;;;;;;2.83;1.38;;;16.00;99.90;;;;;;4844658;29;19946;-80
2023/09/29 03:57:10;;;;;;;;;;;16.00;99.90;;;;;;4845196;29;20443;-80
2023/09/29 03:59:36;;;;;;;3.45;1.30;;;16.10;99.90;;;;;;4845044;29;19920;-80
2023/09/29 04:02:02;;;;;;;3.08;1.20;;;16.10;99.90;;;;;;4824323;29;20477;-80
2023/09/29 04:04:28;;;;;;;3.35;1.42;;;16.10;99.90;;;;;;4838867;29;20124;-80
2023/09/29 04:06:53;;;;;;;4.65;1.63;;;16.10;99.90;;;;;;4828923;29;20167;-80
2023/09/29 04:09:20;;;;;;;3.15;1.40;;;16.10;99.90;;;;;;4829426;29;20049;-80
2023/09/29 04:11:46;;;;;;;3.40;1.40;;;16.20;99.90;;;;;;4843945;29;20078;-79
2023/09/29 04:14:12;;;;;;;4.75;1.73;;;16.20;99.90;;;;;;4844162;29;20091;-80
2023/09/29 04:16:38;;;;;;;3.00;1.50;;;16.20;99.90;;;;;;4843932;29;20053;-80
2023/09/29 04:19:03;;;;;;;;;;;16.20;99.90;;;;;;4844194;29;20057;-80
2023/09/29 04:21:29;;;;;;;3.90;1.40;;;16.20;99.90;;;;;;4844321;29;19976;-80
2023/09/29 04:23:55;;;;;;;4.30;1.50;;;16.20;99.90;;;;;;4829249;29;20496;-80
2023/09/29 04:26:22;;;;;;;;;;;16.20;99.90;;;;;;4844471;29;20133;-80
2023/09/29 04:28:49;;;;;;;3.13;1.45;;;16.20;99.90;;;;;;4844444;29;19931;-80
2023/09/29 04:31:16;;;;;;;2.45;1.40;;;16.20;99.90;;;;;;4843866;29;20092;-80
2023/09/29 04:33:42;;;;;;;3.17;1.50;;;16.30;99.90;;;;;;4844277;29;20054;-80
2023/09/29 04:36:07;;;;;;;;;;;16.20;99.90;;;;;;4844307;29;20110;-80
2023/09/29 04:38:36;;;;;;;3.42;1.60;;;16.20;99.90;;;;;;4843663;29;19928;-79
2023/09/29 04:41:04;;;;;;;3.88;1.55;;;16.30;99.90;;;;;;4858872;29;20156;-80
2023/09/29 04:43:30;;;;;;;2.70;1.27;;;16.30;99.90;;;;;;4828659;29;20083;-80
2023/09/29 04:45:56;;;;;;;2.45;1.40;;;16.30;99.90;;;;;;4831535;29;20045;-80
2023/09/29 04:48:22;;;;;;;3.50;1.50;;;16.20;99.90;;;;;;4848104;29;20048;-80
2023/09/29 04:50:49;;;;;;;4.30;1.70;;;16.30;99.90;;;;;;4833669;29;20045;-80
2023/09/29 04:53:15;;;;;;;5.38;1.60;;;16.20;99.90;;;;;;4813502;29;20133;-80
2023/09/29 04:55:40;;;;;;;5.43;2.00;;;16.20;99.90;;;;;;4839141;29;20556;-80
2023/09/29 04:58:09;;;;;;;3.50;1.70;;;16.20;99.90;;;;;;4824890;29;20050;-80
2023/09/29 05:00:35;;;;;;;3.95;1.67;;;16.20;99.90;;;;;;4827277;29;20072;-80
2023/09/29 05:03:01;;;;;;;2.63;1.52;;;16.20;99.90;;;;;;4843141;29;20060;-80
2023/09/29 05:05:27;;;;;;;4.38;1.75;;;16.20;99.90;;;;;;4828968;29;20041;-81
2023/09/29 05:07:53;;;;;;;3.92;1.58;;;16.20;99.90;;;;;;4841298;29;20401;-82
2023/09/29 05:10:19;;;;;;;3.65;1.70;;;16.10;99.90;;;;;;4825200;29;20049;-81
2023/09/29 05:12:45;;;;;;;3.47;1.35;;;16.10;99.90;;;;;;4843938;29;20049;-81
2023/09/29 05:15:11;;;;;;;2.20;1.40;;;16.20;99.90;;;;;;4842980;29;20045;-81
2023/09/29 05:17:37;;;;;;;3.10;1.45;;;16.10;99.90;;;;;;4842775;29;20049;-81
2023/09/29 05:20:05;;;;;;;3.10;1.30;;;16.10;99.90;;;;;;4843925;29;20065;-81
2023/09/29 05:22:31;;;;;;;2.92;1.40;;;16.20;99.90;;;;;;4841252;29;20596;-80
2023/09/29 05:25:00;;;;;;;3.05;1.38;;;16.10;99.90;;;;;;4812787;29;20056;-79
2023/09/29 05:27:29;;;;;;;2.72;1.40;;;16.20;99.90;;;;;;4813828;29;20041;-81
2023/09/29 05:29:56;;;;;;;4.28;1.70;;;16.20;99.90;;;;;;4840892;29;20055;-79
2023/09/29 05:32:23;;;;;;;1.90;1.20;;;16.20;99.90;;;;;;4813032;29;20528;-79
2023/09/29 05:34:49;;;;;;;3.70;1.35;;;16.20;99.90;;;;;;4843868;29;20158;-79
2023/09/29 05:37:14;;;;;;;3.05;1.40;;;16.30;99.90;;;;;;4827154;29;20128;-80
2023/09/29 05:39:40;;;;;;;2.83;1.35;;;16.30;99.90;;;;;;4826299;29;20477;-79
2023/09/29 05:42:07;;;;;;;;;;;16.30;99.90;;;;;;4842068;29;20052;-78
2023/09/29 05:44:33;;;;;;;2.60;1.20;;;16.20;99.90;;;;;;4835298;29;19988;-78
2023/09/29 05:46:59;;;;;;;;;;;16.20;99.90;;;;;;4813565;29;20041;-80
2023/09/29 05:49:25;;;;;;;3.33;1.42;;;16.30;99.90;;;;;;4842823;29;20024;-80
2023/09/29 05:51:50;;;;;;;2.53;1.20;;;16.30;99.90;;;;;;4843960;29;20124;-81
2023/09/29 05:54:16;;;;;;;1.92;1.20;;;16.30;99.90;;;;;;4842879;29;20053;-79
2023/09/29 05:56:42;;;;;;;;;;;16.30;99.90;;;;;;4842354;29;20160;-80
2023/09/29 05:59:08;;;;;;;2.97;1.48;;;16.30;99.90;;;;;;4841662;29;19967;-79
2023/09/29 06:01:35;;;;;;;3.55;1.52;;;16.30;99.90;;;;;;4832745;29;20089;-80
2023/09/29 06:04:00;;;;;;;2.58;1.60;;;16.30;99.90;;;;;;4826874;29;20128;-79
2023/09/29 06:06:26;;;;;;;2.10;1.20;;;16.30;99.90;;;;;;4841560;29;20493;-79
2023/09/29 06:08:52;;;;;;;2.38;1.27;;;16.30;99.90;;;;;;4858123;29;20076;-78
2023/09/29 06:11:17;;;;;;;2.80;1.55;;;16.40;99.90;;;;;;4841831;29;20041;-80
2023/09/29 06:13:43;;;;;;;2.35;1.15;;;16.40;99.90;;;;;;4822977;29;20069;-80
2023/09/29 06:16:09;;;;;;;2.95;1.73;;;16.40;99.90;;;;;;4851417;29;20109;-78
2023/09/29 06:18:35;;;;;;;2.47;1.20;;;16.40;99.90;;;;;;4840339;29;20041;-80
2023/09/29 06:21:01;;;;;;;1.98;1.10;;;16.40;99.90;;;;;;4824027;29;20057;-80
2023/09/29 06:23:27;;;;;;;2.70;1.27;;;16.40;99.90;;;;;;4839540;29;20054;-84
2023/09/29 06:26:00;;;;;;;1.95;1.10;;;16.50;99.90;;;;;;4824580;29;20141;-78
2023/09/29 06:28:26;;;;;;;3.50;1.40;;;16.50;99.90;;;;;;4838729;29;20053;-78
2023/09/29 06:30:53;;;;;;;2.20;1.10;;;16.50;99.90;;;;;;4838238;29;20057;-78
2023/09/29 06:33:20;;;;;;;2.38;1.10;;;16.50;99.90;;;;;;4839101;29;20053;-78
2023/09/29 06:35:46;;;;;;;1.92;1.00;;;16.50;99.90;;;;;;4839623;29;20057;-78
2023/09/29 06:38:11;;;;;;;;;;;16.50;99.90;;;;;;4825405;29;20045;-78
2023/09/29 06:40:37;;;;;;;2.72;1.35;;;16.60;99.90;;;;;;4840272;29;19932;-78
2023/09/29 06:43:03;;;;;;;;;;;16.60;99.90;;;;;;4810994;29;20048;-77
2023/09/29 06:45:31;;;;;;;4.03;2.05;;;16.60;99.90;;;;;;4826485;29;19924;-79
2023/09/29 06:47:56;;;;;;;3.08;1.80;;;16.60;99.90;;;;;;4826596;29;20405;-78
2023/09/29 06:50:22;;;;;;;;;;;16.60;99.90;;;;;;4857558;29;20056;-78
2023/09/29 06:52:48;;;;;;;2.33;1.35;;;16.60;99.90;;;;;;4841908;29;19920;-78
2023/09/29 06:55:14;;;;;;;1.50;1.10;;;16.70;99.90;;;;;;4826409;29;20108;-78
2023/09/29 06:57:40;;;;;;;2.03;1.23;;;16.70;99.90;;;;;;4826662;29;20056;-78
2023/09/29 07:00:09;;;;;;;2.42;1.38;;;16.80;99.90;;;;;;4857018;29;20121;-78
2023/09/29 07:02:35;;;;;;;1.27;0.98;;;16.80;99.90;;;;;;4857502;29;20374;-78
2023/09/29 07:05:01;;;;;;;1.75;1.02;;;16.80;99.90;;;;;;4824964;29;20050;-78
2023/09/29 07:07:27;;;;;;;;;;;16.90;99.90;;;;;;4842119;29;20057;-78
2023/09/29 07:09:53;;;;;;;1.52;1.05;;;16.80;99.90;;;;;;4841577;29;19924;-78
2023/09/29 07:12:19;;;;;;;1.40;0.90;;;17.00;99.90;;;;;;4841984;29;20053;-78
2023/09/29 07:14:44;;;;;;;;;;;17.00;99.90;;;;;;4857230;29;20421;-78
2023/09/29 07:17:11;;;;;;;1.92;1.20;;;17.20;99.90;;;;;;4858070;29;20100;-77
2023/09/29 07:19:36;;;;;;;1.23;0.73;;;17.20;99.90;;;;;;4841568;29;20065;-77
2023/09/29 07:22:02;;;;;;;;;;;17.30;99.90;;;;;;4845180;29;20067;-77
2023/09/29 07:24:28;;;;;;;2.08;1.00;;;17.40;99.90;;;;;;4843492;29;19920;-77
2023/09/29 07:26:53;;;;;;;;;;;17.40;99.90;;;;;;4844300;29;20417;-77
2023/09/29 07:29:19;;;;;;;1.65;1.05;;;17.40;99.90;;;;;;4859870;29;20672;-78
2023/09/29 07:31:48;;;;;;;;;;;17.40;99.90;;;;;;4845398;29;20144;-78
2023/09/29 07:34:15;;;;;;;2.65;1.50;;;17.50;99.90;;;;;;4862034;29;19979;-82
2023/09/29 07:36:48;;;;;;;1.65;1.17;;;17.50;99.90;;;;;;4846793;29;20159;-83
2023/09/29 07:39:15;;;;;;;2.45;1.10;;;17.50;99.90;;;;;;4816445;29;20041;-82
2023/09/29 07:41:42;;;;;;;3.58;1.50;;;17.60;99.90;;;;;;4846516;29;20045;-82
2023/09/29 07:44:08;;;;;;;3.50;1.48;;;17.70;99.90;;;;;;4830873;29;20053;-82
2023/09/29 07:46:40;;;;;;;;;;;17.80;99.90;;;;;;4861690;29;20049;-82
2023/09/29 07:49:06;;;;;;;2.75;1.42;;;17.80;99.90;;;;;;4858039;29;20353;-82
2023/09/29 07:51:32;;;;;;;2.28;1.50;;;17.90;99.90;;;;;;4859789;29;20076;-82
2023/09/29 07:53:58;;;;;;;;;;;18.00;99.90;;;;;;4847488;29;20433;-83
2023/09/29 07:56:24;;;;;;;2.20;1.45;;;18.10;99.90;;;;;;4846452;29;19928;-81
2023/09/29 07:58:50;;;;;;;;;;;18.10;99.90;;;;;;4831056;29;20465;-82
2023/09/29 08:01:16;;;;;;;2.03;1.30;;;18.30;99.90;;;;;;4846096;29;20384;-81
2023/09/29 08:03:42;;;;;;;;;;;18.40;99.90;;;;;;4858915;29;20049;-82
2023/09/29 08:06:08;;;;;;;2.38;1.48;;;18.60;99.90;;;;;;4861178;29;19932;-82
2023/09/29 08:08:35;;;;;;;1.58;1.08;;;18.70;99.90;;;;;;4861708;29;20045;-82
2023/09/29 08:11:02;;;;;;;1.75;1.30;;;18.80;99.90;;;;;;4845931;29;20053;-82
2023/09/29 08:13:28;;;;;;;3.80;1.83;;;18.90;99.90;;;;;;4861263;29;20477;-82
2023/09/29 08:15:53;;;;;;;;;;;18.90;99.90;;;;;;4831199;29;20048;-81
2023/09/29 08:18:19;;;;;;;1.92;1.20;;;19.00;99.90;;;;;;4860993;29;19924;-82
2023/09/29 08:20:46;;;;;;;3.15;1.35;;;19.00;99.90;;;;;;4860996;29;20065;-82
2023/09/29 08:23:12;;;;;;;1.63;1.13;;;19.00;99.90;;;;;;4860788;29;20053;-81
2023/09/29 08:25:38;;;;;;;;;;;19.10;99.90;;;;;;4846049;29;20137;-83
2023/09/29 08:28:05;;;;;;;1.65;1.10;;;19.10;99.90;;;;;;4850203;29;19920;-82
2023/09/29 08:30:31;;;;;;;1.83;1.00;;;19.20;99.90;;;;;;4850899;29;20057;-81
2023/09/29 08:32:57;;;;;;;;;;;19.30;99.90;;;;;;4819931;29;20194;-80
2023/09/29 08:35:23;;;;;;;2.83;1.40;;;19.30;99.90;;;;;;4845786;29;19927;-81
2023/09/29 08:37:49;;;;;;;;;;;19.30;99.90;;;;;;4861662;29;20513;-82
2023/09/29 08:40:18;;;;;;;2.60;1.15;;;19.40;99.90;;;;;;4845852;29;19924;-82
2023/09/29 08:42:49;;;;;;;2.25;1.30;;;19.40;99.90;;;;;;4873949;29;20042;-82
2023/09/29 08:45:17;;;;;;;2.28;1.35;;;19.50;99.90;;;;;;4861295;29;20136;-82
2023/09/29 08:47:49;;;;;;;2.13;1.42;;;19.60;99.90;;;;;;4845379;29;20120;-82
2023/09/29 08:50:16;;;;;;;3.15;1.35;;;19.60;99.90;;;;;;4860786;29;20037;-82
2023/09/29 08:52:44;;;;;;;2.55;1.30;;;19.60;99.90;;;;;;4845782;29;20046;-81
2023/09/29 08:55:12;;;;;;;1.50;1.15;;;19.70;99.90;;;;;;4847767;29;20523;-82
2023/09/29 08:57:41;;;;;;;2.67;1.65;;;19.80;99.90;;;;;;4839972;29;20084;-83
2023/09/29 09:00:12;;;;;;;2.33;1.40;;;19.80;99.90;;;;;;4861198;29;20045;-82
2023/09/29 09:02:41;;;;;;;2.40;1.20;;;19.90;99.90;;;;;;4846436;29;20066;-82
2023/09/29 09:05:09;;;;;;;1.48;1.00;;;20.00;99.90;;;;;;4859839;29;20397;-82
2023/09/29 09:07:35;;;;;;;2.50;1.52;;;20.20;99.90;;;;;;4837406;29;20045;-81
2023/09/29 09:10:00;;;;;;;2.10;1.42;;;20.10;99.90;;;;;;4820132;29;20072;-82
2023/09/29 09:12:34;;;;;;;4.10;1.75;;;20.10;99.90;;;;;;4860977;29;20060;-81
2023/09/29 09:15:00;;;;;;;2.63;1.60;;;20.00;99.90;;;;;;4853876;29;20109;-81
2023/09/29 09:17:26;;;;;;;2.00;1.17;;;20.00;99.90;;;;;;4844593;29;20038;-82
2023/09/29 09:19:51;;;;;;;2.47;1.45;;;20.00;99.90;;;;;;4844348;29;20061;-81
2023/09/29 09:22:31;;;;;;;;;;;20.10;99.90;;;;;;4845359;29;20121;-83
2023/09/29 09:24:58;;;;;;;2.92;1.40;;;20.10;99.90;;;;;;4844917;29;19999;-82
2023/09/29 09:27:24;;;;;;;3.15;1.50;;;20.20;99.90;;;;;;4860265;29;20049;-82
2023/09/29 09:29:50;;;;;;;2.58;1.50;;;20.40;99.90;;;;;;4826705;29;20101;-83
2023/09/29 09:32:27;;;;;;;2.15;1.30;;;20.50;99.90;;;;;;4856499;29;20501;-82
2023/09/29 09:34:53;;;;;;;2.15;1.40;;;20.60;99.90;;;;;;4842098;29;20041;-82
2023/09/29 09:37:26;;;;;;;1.70;1.20;;;20.60;99.90;;;;;;4850203;29;20064;-82
2023/09/29 09:39:55;;;;;;;2.45;1.40;;;20.70;99.90;;;;;;4863273;29;20143;-83
2023/09/29 09:42:26;;;;;;;2.10;1.50;;;20.80;99.90;;;;;;4862986;29;20080;-83
2023/09/29 09:44:57;;;;;;;2.22;1.55;;;20.80;99.90;;;;;;4847583;29;20457;-83
2023/09/29 09:47:25;;;;;;;3.45;1.80;;;20.70;99.90;;;;;;4865073;29;20056;-82
2023/09/29 09:49:55;;;;;;;3.53;1.70;;;20.70;99.90;;;;;;4829421;29;20057;-83
2023/09/29 09:52:29;;;;;;;2.63;1.60;;;20.70;99.90;;;;;;4858526;29;20060;-84
2023/09/29 09:55:11;;;;;;;3.03;1.60;;;20.70;99.90;;;;;;4872313;29;20640;-84
2023/09/29 09:57:43;;;;;;;3.38;1.58;;;20.80;99.90;;;;;;4858581;29;20050;-82
2023/09/29 10:00:12;;;;;;;3.00;1.80;;;20.80;99.90;;;;;;4875187;29;20078;-83
2023/09/29 10:02:51;;;;;;;2.75;1.52;;;20.70;99.90;;;;;;4852852;29;20118;-84
2023/09/29 10:05:25;;;;;;;3.15;1.80;;;20.70;99.90;;;;;;4844671;29;20101;-83
2023/09/29 10:07:53;;;;;;;3.15;1.60;;;20.70;99.90;;;;;;4843829;29;20049;-83
2023/09/29 10:10:28;;;;;;;4.13;1.80;;;20.80;99.90;;;;;;4857460;29;20057;-83
2023/09/29 10:12:57;;;;;;;2.90;1.67;;;20.70;99.90;;;;;;4844025;29;20516;-83
2023/09/29 10:15:29;;;;;;;3.40;1.50;;;20.60;99.90;;;;;;4859295;29;20058;-83
2023/09/29 10:17:58;;;;;;;2.72;1.40;;;20.60;99.90;;;;;;4859150;29;20114;-83
2023/09/29 10:20:26;;;;;;;1.75;1.20;;;20.70;99.90;;;;;;4861477;29;20089;-83
2023/09/29 10:23:13;;;;;;;2.85;1.48;;;20.80;99.90;;;;;;4854317;29;20047;-83
2023/09/29 10:25:41;;;;;;;2.97;1.65;;;21.00;99.90;;;;;;4829213;29;20387;-84
2023/09/29 10:28:08;;;;;;;2.92;1.63;;;21.20;99.90;;;;;;4843348;29;20045;-80
2023/09/29 10:30:39;;;;;;;3.70;1.98;;;21.20;99.90;;;;;;4857609;29;20059;-80
2023/09/29 10:33:11;;;;;;;3.25;1.77;;;21.10;99.90;;;;;;4865405;29;20076;-80
2023/09/29 10:35:46;;;;;;;2.40;1.65;;;21.10;99.90;;;;;;4845907;29;20084;-80
2023/09/29 10:38:33;;;;;;;3.95;2.10;;;21.00;99.90;;;;;;4842354;29;20072;-79
2023/09/29 10:40:58;;;;;;;;;;;20.80;99.90;;;;;;4824662;29;20038;-79
2023/09/29 10:43:24;;;;;;;3.77;2.00;;;20.70;99.90;;;;;;4833190;29;19924;-79
2023/09/29 10:45:51;;;;;;;3.03;1.90;;;20.60;99.90;;;;;;4842241;29;20057;-79
2023/09/29 10:48:22;;;;;;;2.92;1.73;;;20.60;99.90;;;;;;4842284;29;20045;-79
2023/09/29 10:50:51;;;;;;;2.83;1.70;;;20.50;99.90;;;;;;4857337;29;20064;-80
2023/09/29 10:53:22;;;;;;;4.57;2.17;;;20.40;99.90;;;;;;4841618;29;20434;-79
2023/09/29 10:55:50;;;;;;;3.70;1.90;;;20.30;99.90;;;;;;4828982;29;20041;-79
2023/09/29 10:58:17;;;;;;;2.60;1.60;;;20.30;99.90;;;;;;4845878;29;20037;-80
2023/09/29 11:00:48;;;;;;;2.28;1.50;;;20.30;99.90;;;;;;4861441;29;20045;-80
2023/09/29 11:03:32;;;;;;;3.97;2.13;;;20.40;99.90;;;;;;4830221;29;20056;-79
2023/09/29 11:06:03;;;;;;;4.10;2.10;;;20.50;99.90;;;;;;4840035;29;20053;-80
2023/09/29 11:08:31;;;;;;;3.80;1.95;;;20.50;99.90;;;;;;4815946;29;20045;-80
2023/09/29 11:11:03;;;;;;;3.30;1.70;;;20.60;99.90;;;;;;4830578;29;20121;-79
2023/09/29 11:13:29;;;;;;;4.20;1.90;;;20.60;99.90;;;;;;4861077;29;20053;-80
2023/09/29 11:15:56;;;;;;;2.78;1.85;;;20.50;99.90;;;;;;4848820;29;20042;-81
2023/09/29 11:18:29;;;;;;;4.28;2.20;;;20.40;99.90;;;;;;4863203;29;20391;-81
2023/09/29 11:20:55;;;;;;;2.80;1.65;;;20.30;99.90;;;;;;4834985;29;20569;-79
2023/09/29 11:23:21;;;;;;;3.00;1.55;;;20.30;99.90;;;;;;4863327;29;20054;-81
2023/09/29 11:25:48;;;;;;;2.35;1.60;;;20.20;99.90;;;;;;4836537;29;20041;-83
2023/09/29 11:28:15;;;;;;;2.58;1.52;;;20.10;99.90;;;;;;4856634;29;20045;-83
2023/09/29 11:30:42;;;;;;;3.20;1.60;;;20.10;99.90;;;;;;4851584;29;20050;-83
2023/09/29 11:33:10;;;;;;;3.88;1.90;;;20.10;99.90;;;;;;4864421;29;20577;-83
2023/09/29 11:35:37;;;;;;;3.08;2.00;;;20.00;99.90;;;;;;4848654;29;20053;-82
2023/09/29 11:38:05;;;;;;;2.10;1.40;;;19.90;99.90;;;;;;4848061;29;20825;-84
2023/09/29 11:40:31;;;;;;;3.03;1.80;;;19.90;99.90;;;;;;4849207;29;20049;-83
2023/09/29 11:42:56;;;;;;;2.50;1.80;;;19.90;99.90;;;;;;4864845;29;20038;-83
2023/09/29 11:45:22;;;;;;;;;;;19.90;99.90;;;;;;4833741;29;20045;-82
2023/09/29 11:47:49;;;;;;;3.42;2.00;;;19.80;99.90;;;;;;4847225;29;19976;-83
2023/09/29 11:50:15;;;;;;;3.47;2.00;;;19.70;99.90;;;;;;4847136;29;20045;-80
2023/09/29 11:52:41;;;;;;;3.15;1.95;;;19.60;99.90;;;;;;4861574;29;20128;-79
2023/09/29 11:55:10;;;;;;;2.60;1.50;;;19.60;99.90;;;;;;4845430;29;20082;-81
2023/09/29 11:57:37;;;;;;;2.33;1.52;;;19.60;99.90;;;;;;4846182;29;20060;-83
2023/09/29 12:00:10;;;;;;;2.30;1.52;;;19.60;99.90;;;;;;4863098;29;20134;-79
2023/09/29 12:02:37;;;;;;;2.72;1.73;;;19.50;99.90;;;;;;4860899;29;20396;-80
2023/09/29 12:05:04;;;;;;;2.20;1.30;;;19.60;99.90;;;;;;4829276;29;20132;-79
2023/09/29 12:07:31;;;;;;;2.75;1.95;;;19.60;99.90;;;;;;4860059;29;20153;-80
2023/09/29 12:09:57;;;;;;;2.42;1.58;;;19.50;99.90;;;;;;4830145;29;20061;-80
2023/09/29 12:12:24;;;;;;;2.63;1.50;;;19.40;99.90;;;;;;4860622;29;20087;-78
2023/09/29 12:14:51;;;;;;;4.88;2.10;;;19.40;99.90;;;;;;4862100;29;20057;-79
2023/09/29 12:17:16;;;;;;;4.20;1.92;;;19.40;99.90;;;;;;4845346;29;20046;-78
2023/09/29 12:19:43;;;;;;;;;;;19.00;99.90;;;;;;4826630;29;20129;-79
2023/09/29 12:22:08;;;;;;;2.13;0.90;;;18.60;99.90;;;;;;4857247;29;19920;-79
2023/09/29 12:24:43;;;;;;;;;;;18.40;99.90;;;;;;4829211;29;20060;-88
2023/09/29 12:27:09;;;;;;;2.28;0.77;;;18.30;99.90;;;;;;4823924;29;19928;-78
2023/09/29 12:29:35;;;;;;;;;;;18.10;99.90;;;;;;4858505;29;20406;-79
2023/09/29 12:32:01;;;;;;;1.08;0.57;;;17.90;99.90;;;;;;4841301;29;19928;-77
2023/09/29 12:34:32;;;;;;;;;;;17.80;99.90;;;;;;4837596;29;20177;-77
2023/09/29 12:36:58;;;;;;;1.42;0.70;;;17.60;99.90;;;;;;4825205;29;20309;-78
2023/09/29 12:39:24;;;;;;;1.75;0.63;;;17.50;99.90;;;;;;4811554;29;20087;-77
2023/09/29 12:41:50;;;;;;;;;;;17.50;99.90;;;;;;4841767;29;20080;-78
2023/09/29 12:44:15;;;;;;;3.05;1.10;;;17.40;99.90;;;;;;4843039;29;20002;-77
2023/09/29 12:46:41;;;;;;;;;;;17.30;99.90;;;;;;4841654;29;20062;-77
2023/09/29 12:49:07;;;;;;;3.03;1.02;;;17.30;99.90;;;;;;4859579;29;19924;-76
2023/09/29 12:51:32;;;;;;;;;;;17.00;99.90;;;;;;4828811;29;20129;-77
2023/09/29 12:53:59;;;;;;;2.90;0.90;;;16.90;99.90;;;;;;4827931;29;19930;-78
2023/09/29 12:56:25;;;;;;;4.00;1.20;;;16.80;99.90;;;;;;4839219;29;20157;-78
2023/09/29 12:58:52;;;;;;;3.20;1.00;;;16.80;99.90;;;;;;4828117;29;20106;-78
2023/09/29 13:01:18;;;;;;;2.28;0.95;;;16.70;99.90;;;;;;4829061;29;20053;-80